createdAt,value
2023-04-05T00:01:50.324Z,100125.86
2023-04-05T00:04:21.390Z,100121.27
2023-04-05T00:06:53.081Z,100122.45
2023-04-05T00:09:21.535Z,100115.70
2023-04-05T00:11:49.929Z,100119.56
2023-04-05T00:14:18.078Z,100119.48
2023-04-05T00:16:46.311Z,100115.73
2023-04-05T00:19:15.522Z,100113.67
2023-04-05T00:21:44.012Z,100111.38
2023-04-05T00:24:15.692Z,100110.89
2023-04-05T00:26:44.377Z,100111.74
2023-04-05T00:29:12.730Z,100114.60
2023-04-05T00:31:41.403Z,100113.33
2023-04-05T00:34:10.613Z,100111.38
2023-04-05T00:36:38.886Z,100114.02
2023-04-05T00:39:07.038Z,100115.44
2023-04-05T00:41:36.574Z,100111.41
2023-04-05T00:44:06.021Z,100110.40
2023-04-05T00:46:36.783Z,100109.16
2023-04-05T00:49:05.189Z,100104.70
2023-04-05T00:51:33.922Z,100103.05
2023-04-05T00:54:03.287Z,100100.67
2023-04-05T00:56:31.656Z,100101.14
2023-04-05T00:59:00.291Z,100103.11
2023-04-05T01:01:30.397Z,100098.30
2023-04-05T01:04:03.359Z,100099.86
2023-04-05T01:06:47.292Z,100100.63
2023-04-05T01:09:30.524Z,100101.41
2023-04-05T01:12:02.489Z,100096.92
2023-04-05T01:14:30.857Z,100100.63
2023-04-05T01:16:59.356Z,100094.09
2023-04-05T01:19:30.176Z,100092.19
2023-04-05T01:22:27.641Z,100088.09
2023-04-05T01:25:03.184Z,100090.35
2023-04-05T01:27:58.933Z,100090.52
2023-04-05T01:30:39.525Z,100086.02
2023-04-05T01:33:31.910Z,100086.98
2023-04-05T01:36:12.080Z,100087.47
2023-04-05T01:38:41.364Z,100084.48
2023-04-05T01:41:09.845Z,100085.52
2023-04-05T01:43:38.022Z,100084.91
2023-04-05T01:46:06.538Z,100082.63
2023-04-05T01:48:34.982Z,100083.34
2023-04-05T01:51:03.671Z,100080.73
2023-04-05T01:53:31.850Z,100083.02
2023-04-05T01:56:03.393Z,100080.08
2023-04-05T01:58:31.884Z,100079.33
2023-04-05T02:01:00.208Z,100078.98
2023-04-05T02:03:28.730Z,100076.11
2023-04-05T02:05:58.354Z,100077.45
2023-04-05T02:08:26.528Z,100074.86
2023-04-05T02:10:54.716Z,100067.75
2023-04-05T02:13:24.000Z,100069.54
2023-04-05T02:15:52.646Z,100071.79
2023-04-05T02:18:30.794Z,100070.77
2023-04-05T02:21:04.744Z,100067.21
2023-04-05T02:23:34.020Z,100066.96
2023-04-05T02:26:02.384Z,100068.31
2023-04-05T02:28:31.990Z,100067.09
2023-04-05T02:31:00.147Z,100065.48
2023-04-05T02:33:29.678Z,100067.99
2023-04-05T02:35:58.009Z,100063.50
2023-04-05T02:38:26.461Z,100064.52
2023-04-05T02:40:55.623Z,100066.44
2023-04-05T02:43:23.805Z,100064.20
2023-04-05T02:45:52.468Z,100062.23
2023-04-05T02:48:21.582Z,100061.56
2023-04-05T02:50:50.885Z,100064.36
2023-04-05T02:53:19.585Z,100062.67
2023-04-05T02:55:57.881Z,100061.52
2023-04-05T02:58:26.162Z,100063.44
2023-04-05T03:00:55.281Z,100064.63
2023-04-05T03:03:29.592Z,100062.50
2023-04-05T03:06:10.522Z,100067.39
2023-04-05T03:08:44.865Z,100069.68
2023-04-05T03:11:15.191Z,100072.00
2023-04-05T03:13:46.640Z,100069.08
2023-04-05T03:16:22.850Z,100068.52
2023-04-05T03:18:51.181Z,100070.80
2023-04-05T03:21:19.597Z,100069.63
2023-04-05T03:23:55.526Z,100068.48
2023-04-05T03:26:27.896Z,100071.59
2023-04-05T03:28:56.372Z,100073.09
2023-04-05T03:31:30.822Z,100073.94
2023-04-05T03:34:01.732Z,100075.15
2023-04-05T03:36:42.022Z,100077.27
2023-04-05T03:39:16.309Z,100080.90
2023-04-05T03:41:44.666Z,100080.33
2023-04-05T03:44:13.372Z,100082.45
2023-04-05T03:46:42.679Z,100084.16
2023-04-05T03:49:11.054Z,100084.27
2023-04-05T03:51:39.238Z,100083.25
2023-04-05T03:54:07.511Z,100082.36
2023-04-05T03:56:36.495Z,100082.69
2023-04-05T03:59:12.410Z,100083.84
2023-04-05T04:01:40.969Z,100086.99
2023-04-05T04:04:09.721Z,100089.85
2023-04-05T04:06:38.162Z,100089.39
2023-04-05T04:09:07.059Z,100089.69
2023-04-05T04:11:35.682Z,100088.96
2023-04-05T04:14:06.717Z,100090.29
2023-04-05T04:16:57.833Z,100085.49
2023-04-05T04:19:51.809Z,100084.46
2023-04-05T04:22:57.932Z,100088.45
2023-04-05T04:25:32.707Z,100086.77
2023-04-05T04:28:28.082Z,100088.64
2023-04-05T04:31:15.046Z,100088.30
2023-04-05T04:34:13.725Z,100092.90
2023-04-05T04:36:57.974Z,100094.23
2023-04-05T04:39:37.753Z,100093.46
2023-04-05T04:42:22.998Z,100094.02
2023-04-05T04:45:18.934Z,100097.20
2023-04-05T04:48:00.158Z,100099.35
2023-04-05T04:50:48.597Z,100096.71
2023-04-05T04:53:22.193Z,100097.89
2023-04-05T04:55:52.478Z,100099.61
2023-04-05T04:58:20.546Z,100099.77
2023-04-05T05:01:00.221Z,100099.19
2023-04-05T05:03:29.092Z,100102.36
2023-04-05T05:05:57.357Z,100104.58
2023-04-05T05:08:31.579Z,100102.50
2023-04-05T05:11:00.674Z,100105.44
2023-04-05T05:13:29.176Z,100109.69
2023-04-05T05:15:58.252Z,100106.52
2023-04-05T05:18:27.777Z,100108.76
2023-04-05T05:20:56.235Z,100111.38
2023-04-05T05:23:24.520Z,100109.98
2023-04-05T05:25:58.365Z,100109.33
2023-04-05T05:28:27.624Z,100109.73
2023-04-05T05:30:56.082Z,100111.37
2023-04-05T05:33:25.622Z,100108.95
2023-04-05T05:35:53.844Z,100107.80
2023-04-05T05:38:22.575Z,100106.65
2023-04-05T05:40:57.901Z,100104.38
2023-04-05T05:43:26.407Z,100105.43
2023-04-05T05:45:54.894Z,100106.17
2023-04-05T05:48:23.470Z,100109.56
2023-04-05T05:50:51.835Z,100110.91
2023-04-05T05:53:20.531Z,100113.66
2023-04-05T05:55:48.801Z,100112.91
2023-04-05T05:58:17.079Z,100111.27
2023-04-05T06:00:49.863Z,100110.67
2023-04-05T06:03:19.533Z,100113.50
2023-04-05T06:05:55.428Z,100108.33
2023-04-05T06:08:25.630Z,100111.41
2023-04-05T06:10:54.334Z,100112.16
2023-04-05T06:13:22.822Z,100114.20
2023-04-05T06:15:51.333Z,100115.77
2023-04-05T06:18:20.921Z,100115.05
2023-04-05T06:20:49.400Z,100120.66
2023-04-05T06:23:17.561Z,100124.55
2023-04-05T06:25:45.942Z,100119.54
2023-04-05T06:28:14.113Z,100123.34
2023-04-05T06:30:42.796Z,100122.66
2023-04-05T06:33:11.431Z,100125.78
2023-04-05T06:35:39.691Z,100125.77
2023-04-05T06:38:08.448Z,100124.17
2023-04-05T06:40:37.132Z,100127.58
2023-04-05T06:43:05.422Z,100126.64
2023-04-05T06:45:34.410Z,100126.02
2023-04-05T06:48:02.887Z,100131.21
2023-04-05T06:50:31.366Z,100130.75
2023-04-05T06:52:59.539Z,100132.74
2023-04-05T06:55:27.799Z,100136.20
2023-04-05T06:57:55.905Z,100139.10
2023-04-05T07:00:24.479Z,100137.64
2023-04-05T07:02:52.745Z,100140.70
2023-04-05T07:05:21.249Z,100142.80
2023-04-05T07:07:50.026Z,100143.52
2023-04-05T07:10:18.765Z,100147.52
2023-04-05T07:12:47.300Z,100149.86
2023-04-05T07:15:15.879Z,100148.63
2023-04-05T07:17:44.212Z,100153.02
2023-04-05T07:20:12.730Z,100151.98
2023-04-05T07:22:41.525Z,100150.83
2023-04-05T07:25:10.697Z,100156.66
2023-04-05T07:27:39.990Z,100154.77
2023-04-05T07:30:09.094Z,100155.67
2023-04-05T07:32:37.419Z,100155.21
2023-04-05T07:35:06.286Z,100154.23
2023-04-05T07:37:34.872Z,100153.87
2023-04-05T07:40:04.113Z,100156.63
2023-04-05T07:42:33.692Z,100155.34
2023-04-05T07:45:01.855Z,100155.52
2023-04-05T07:47:30.098Z,100158.55
2023-04-05T07:49:59.467Z,100160.77
2023-04-05T07:52:27.705Z,100162.27
2023-04-05T07:54:56.933Z,100158.53
2023-04-05T07:57:25.228Z,100157.93
2023-04-05T07:59:56.017Z,100161.46
2023-04-05T08:02:24.609Z,100165.67
2023-04-05T08:04:53.005Z,100168.22
2023-04-05T08:07:23.318Z,100172.77
2023-04-05T08:09:51.797Z,100176.98
2023-04-05T08:12:19.929Z,100175.66
2023-04-05T08:14:48.132Z,100179.89
2023-04-05T08:17:16.514Z,100181.75
2023-04-05T08:19:44.793Z,100184.09
2023-04-05T08:22:13.167Z,100180.19
2023-04-05T08:24:41.296Z,100181.73
2023-04-05T08:27:09.843Z,100182.95
2023-04-05T08:29:38.916Z,100186.27
2023-04-05T08:32:07.165Z,100187.24
2023-04-05T08:34:35.518Z,100189.93
2023-04-05T08:37:03.853Z,100192.98
2023-04-05T08:39:34.381Z,100194.27
2023-04-05T08:42:17.463Z,100193.41
2023-04-05T08:44:48.344Z,100196.86
2023-04-05T08:47:19.736Z,100201.68
2023-04-05T08:49:49.099Z,100204.60
2023-04-05T08:52:17.279Z,100205.36
2023-04-05T08:54:45.863Z,100207.27
2023-04-05T08:57:15.989Z,100205.98
2023-04-05T08:59:45.898Z,100207.56
2023-04-05T09:02:17.846Z,100209.30
2023-04-05T09:04:48.663Z,100210.98
2023-04-05T09:07:18.217Z,100217.46
2023-04-05T09:09:53.532Z,100222.29
2023-04-05T09:12:23.044Z,100221.59
2023-04-05T09:14:52.658Z,100220.35
2023-04-05T09:17:23.046Z,100225.73
2023-04-05T09:19:51.475Z,100222.31
2023-04-05T09:22:19.838Z,100224.20
2023-04-05T09:24:48.140Z,100229.31
2023-04-05T09:27:21.258Z,100229.02
2023-04-05T09:29:56.784Z,100227.83
2023-04-05T09:32:28.617Z,100228.05
2023-04-05T09:35:01.430Z,100227.41
2023-04-05T09:37:32.848Z,100221.73
2023-04-05T09:40:06.970Z,100221.73
2023-04-05T09:42:47.292Z,100219.04
2023-04-05T09:45:16.829Z,100224.61
2023-04-05T09:47:58.482Z,100219.61
2023-04-05T09:50:27.418Z,100222.75
2023-04-05T09:53:08.065Z,100219.38
2023-04-05T09:55:37.072Z,100213.59
2023-04-05T09:58:05.553Z,100218.11
2023-04-05T10:00:37.662Z,100220.95
2023-04-05T10:03:05.855Z,100216.04
2023-04-05T10:05:34.270Z,100215.08
2023-04-05T10:08:02.915Z,100216.06
2023-04-05T10:10:36.060Z,100211.92
2023-04-05T10:13:06.408Z,100211.27
2023-04-05T10:15:35.776Z,100209.67
2023-04-05T10:18:11.126Z,100210.60
2023-04-05T10:20:41.705Z,100210.59
2023-04-05T10:23:27.640Z,100209.06
2023-04-05T10:25:55.913Z,100205.54
2023-04-05T10:28:37.808Z,100207.59
2023-04-05T10:31:51.504Z,100212.96
2023-04-05T10:34:51.277Z,100211.51
2023-04-05T10:37:40.641Z,100208.10
2023-04-05T10:40:11.332Z,100205.31
2023-04-05T10:42:46.335Z,100205.86
2023-04-05T10:45:19.879Z,100207.57
2023-04-05T10:47:55.922Z,100211.94
2023-04-05T10:50:26.256Z,100210.83
2023-04-05T10:52:56.336Z,100210.80
2023-04-05T10:55:24.771Z,100212.92
2023-04-05T10:57:54.813Z,100209.77
2023-04-05T11:00:24.512Z,100207.23
2023-04-05T11:02:58.938Z,100214.02
2023-04-05T11:05:35.169Z,100209.30
2023-04-05T11:08:12.897Z,100209.30
2023-04-05T11:10:42.357Z,100210.84
2023-04-05T11:13:11.130Z,100211.16
2023-04-05T11:15:40.535Z,100213.48
2023-04-05T11:18:22.011Z,100214.39
2023-04-05T11:21:05.321Z,100212.68
2023-04-05T11:24:00.828Z,100213.65
2023-04-05T11:26:34.050Z,100215.23
2023-04-05T11:29:02.310Z,100210.50
2023-04-05T11:31:30.604Z,100212.59
2023-04-05T11:34:00.813Z,100209.29
2023-04-05T11:36:44.341Z,100208.26
2023-04-05T11:39:25.312Z,100203.65
2023-04-05T11:42:05.850Z,100204.02
2023-04-05T11:44:48.606Z,100207.54
2023-04-05T11:47:20.921Z,100207.06
2023-04-05T11:49:52.822Z,100205.64
2023-04-05T11:52:22.071Z,100204.20
2023-04-05T11:54:50.496Z,100202.75
2023-04-05T11:57:23.824Z,100199.14
2023-04-05T11:59:53.524Z,100200.69
2023-04-05T12:02:22.134Z,100202.67
2023-04-05T12:04:58.049Z,100198.49
2023-04-05T12:07:37.196Z,100197.89
2023-04-05T12:10:16.609Z,100197.66
2023-04-05T12:12:47.862Z,100194.94
2023-04-05T12:15:19.291Z,100197.13
2023-04-05T12:17:54.549Z,100188.77
2023-04-05T12:20:25.084Z,100187.91
2023-04-05T12:22:55.667Z,100185.04
2023-04-05T12:25:25.121Z,100185.05
2023-04-05T12:27:53.600Z,100184.91
2023-04-05T12:30:23.679Z,100183.30
2023-04-05T12:32:55.985Z,100186.61
2023-04-05T12:35:33.167Z,100183.20
2023-04-05T12:38:06.194Z,100184.85
2023-04-05T12:40:36.030Z,100182.98
2023-04-05T12:43:07.329Z,100181.06
2023-04-05T12:45:43.830Z,100182.60
2023-04-05T12:48:13.724Z,100181.02
2023-04-05T12:50:46.574Z,100180.65
2023-04-05T12:53:22.807Z,100178.45
2023-04-05T12:55:55.450Z,100179.72
2023-04-05T12:58:33.335Z,100177.79
2023-04-05T13:01:01.576Z,100176.70
2023-04-05T13:03:30.517Z,100174.19
2023-04-05T13:05:58.781Z,100171.16
2023-04-05T13:08:27.799Z,100172.26
2023-04-05T13:10:58.004Z,100171.23
2023-04-05T13:13:26.587Z,100171.21
2023-04-05T13:15:54.992Z,100169.20
2023-04-05T13:18:23.250Z,100162.41
2023-04-05T13:20:51.414Z,100166.52
2023-04-05T13:23:19.598Z,100160.68
2023-04-05T13:25:47.973Z,100160.46
2023-04-05T13:28:16.247Z,100160.79
2023-04-05T13:30:44.521Z,100156.91
2023-04-05T13:33:12.957Z,100154.63
2023-04-05T13:35:42.036Z,100158.41
2023-04-05T13:38:11.397Z,100155.78
2023-04-05T13:40:40.083Z,100156.11
2023-04-05T13:43:09.025Z,100160.11
2023-04-05T13:45:39.614Z,100161.23
2023-04-05T13:48:08.025Z,100154.70
2023-04-05T13:50:36.669Z,100153.25
2023-04-05T13:53:04.847Z,100156.73
2023-04-05T13:55:33.222Z,100154.77
2023-04-05T13:58:01.498Z,100155.67
2023-04-05T14:00:29.876Z,100156.44
2023-04-05T14:02:58.120Z,100156.64
2023-04-05T14:05:27.558Z,100154.88
2023-04-05T14:07:56.497Z,100150.13
2023-04-05T14:10:24.831Z,100156.58
2023-04-05T14:12:52.903Z,100155.53
2023-04-05T14:15:21.795Z,100156.75
2023-04-05T14:17:50.119Z,100155.19
2023-04-05T14:20:18.356Z,100157.99
2023-04-05T14:22:46.824Z,100157.92
2023-04-05T14:25:15.098Z,100157.58
2023-04-05T14:27:43.272Z,100156.42
2023-04-05T14:30:12.569Z,100153.98
2023-04-05T14:32:41.135Z,100159.35
2023-04-05T14:35:10.079Z,100155.94
2023-04-05T14:37:38.635Z,100156.63
2023-04-05T14:40:07.831Z,100156.08
2023-04-05T14:42:47.717Z,100160.47
2023-04-05T14:45:18.785Z,100166.47
2023-04-05T14:47:47.047Z,100163.36
2023-04-05T14:50:15.907Z,100167.77
2023-04-05T14:52:45.625Z,100168.13
2023-04-05T14:55:14.758Z,100164.30
2023-04-05T14:57:43.286Z,100165.88
2023-04-05T15:00:12.578Z,100166.65
2023-04-05T15:02:41.196Z,100164.08
2023-04-05T15:05:10.600Z,100165.09
2023-04-05T15:07:39.565Z,100166.82
2023-04-05T15:10:08.215Z,100165.48
2023-04-05T15:12:36.735Z,100166.49
2023-04-05T15:15:06.404Z,100167.04
2023-04-05T15:17:34.639Z,100167.54
2023-04-05T15:20:03.089Z,100163.55
2023-04-05T15:22:31.477Z,100169.22
2023-04-05T15:25:00.175Z,100170.55
2023-04-05T15:27:28.440Z,100167.20
2023-04-05T15:29:57.431Z,100167.34
2023-04-05T15:32:25.944Z,100169.92
2023-04-05T15:34:54.296Z,100173.95
2023-04-05T15:37:22.679Z,100172.25
2023-04-05T15:39:51.047Z,100177.55
2023-04-05T15:42:21.929Z,100177.00
2023-04-05T15:44:51.387Z,100176.16
2023-04-05T15:47:19.567Z,100171.23
2023-04-05T15:49:48.975Z,100173.38
2023-04-05T15:52:17.964Z,100169.83
2023-04-05T15:54:46.345Z,100172.79
2023-04-05T15:57:14.623Z,100172.16
2023-04-05T15:59:43.721Z,100168.70
2023-04-05T16:02:12.505Z,100171.39
2023-04-05T16:04:42.108Z,100174.44
2023-04-05T16:07:10.594Z,100174.50
2023-04-05T16:09:38.872Z,100174.54
2023-04-05T16:12:07.253Z,100177.58
2023-04-05T16:14:35.528Z,100176.88
2023-04-05T16:17:04.327Z,100173.70
2023-04-05T16:19:32.505Z,100174.84
2023-04-05T16:22:03.197Z,100171.42
2023-04-05T16:24:33.284Z,100170.00
2023-04-05T16:27:01.723Z,100170.46
2023-04-05T16:29:30.106Z,100172.05
2023-04-05T16:31:58.405Z,100169.71
2023-04-05T16:34:27.988Z,100167.63
2023-04-05T16:36:56.169Z,100173.30
2023-04-05T16:39:24.952Z,100174.54
2023-04-05T16:41:53.142Z,100176.15
2023-04-05T16:44:21.542Z,100177.48
2023-04-05T16:46:50.701Z,100178.83
2023-04-05T16:49:19.113Z,100177.11
2023-04-05T16:51:47.976Z,100175.48
2023-04-05T16:54:17.173Z,100174.31
2023-04-05T16:56:46.476Z,100176.03
2023-04-05T16:59:14.875Z,100180.03
2023-04-05T17:01:43.318Z,100182.30
2023-04-05T17:04:11.815Z,100182.39
2023-04-05T17:06:40.094Z,100187.61
2023-04-05T17:09:09.289Z,100189.98
2023-04-05T17:11:37.769Z,100193.99
2023-04-05T17:14:07.053Z,100198.03
2023-04-05T17:16:35.322Z,100193.62
2023-04-05T17:19:03.725Z,100195.83
2023-04-05T17:21:32.922Z,100202.39
2023-04-05T17:24:01.198Z,100206.84
2023-04-05T17:26:30.000Z,100209.66
2023-04-05T17:28:59.120Z,100216.14
2023-04-05T17:31:27.731Z,100216.76
2023-04-05T17:33:56.455Z,100222.98
2023-04-05T17:36:24.839Z,100230.84
2023-04-05T17:38:53.837Z,100240.70
2023-04-05T17:41:22.628Z,100245.30
2023-04-05T17:43:51.335Z,100245.48
2023-04-05T17:46:27.314Z,100252.22
2023-04-05T17:49:02.917Z,100256.28
2023-04-05T17:51:31.842Z,100253.90
2023-04-05T17:54:00.507Z,100260.63
2023-04-05T17:56:28.977Z,100266.63
2023-04-05T17:58:57.296Z,100267.47
2023-04-05T18:01:26.493Z,100266.46
2023-04-05T18:03:55.017Z,100262.27
2023-04-05T18:06:23.412Z,100264.77
2023-04-05T18:08:52.109Z,100267.12
2023-04-05T18:11:20.476Z,100269.17
2023-04-05T18:13:48.753Z,100268.93
2023-04-05T18:16:16.984Z,100270.37
2023-04-05T18:18:45.317Z,100273.08
2023-04-05T18:21:13.794Z,100276.15
2023-04-05T18:23:43.509Z,100274.84
2023-04-05T18:26:13.929Z,100277.03
2023-04-05T18:28:42.363Z,100276.44
2023-04-05T18:31:11.947Z,100276.40
2023-04-05T18:33:41.008Z,100272.17
2023-04-05T18:36:09.425Z,100275.05
2023-04-05T18:38:38.079Z,100277.60
2023-04-05T18:41:07.313Z,100275.67
2023-04-05T18:43:35.971Z,100275.88
2023-04-05T18:46:04.583Z,100274.69
2023-04-05T18:48:34.150Z,100274.48
2023-04-05T18:51:02.361Z,100270.77
2023-04-05T18:53:30.808Z,100274.08
2023-04-05T18:55:59.502Z,100269.56
2023-04-05T18:58:28.277Z,100268.50
2023-04-05T19:00:56.881Z,100267.47
2023-04-05T19:03:25.398Z,100269.33
2023-04-05T19:05:53.935Z,100268.89
2023-04-05T19:08:22.417Z,100265.41
2023-04-05T19:10:51.198Z,100265.02
2023-04-05T19:13:19.577Z,100265.33
2023-04-05T19:15:48.175Z,100260.03
2023-04-05T19:18:16.658Z,100264.42
2023-04-05T19:20:45.475Z,100263.84
2023-04-05T19:23:13.826Z,100263.16
2023-04-05T19:25:42.089Z,100262.61
2023-04-05T19:28:10.265Z,100261.55
2023-04-05T19:30:41.201Z,100262.63
2023-04-05T19:33:11.144Z,100261.65
2023-04-05T19:35:40.164Z,100266.29
2023-04-05T19:38:12.959Z,100259.46
2023-04-05T19:40:42.559Z,100257.27
2023-04-05T19:43:12.479Z,100255.45
2023-04-05T19:45:41.411Z,100250.55
2023-04-05T19:48:34.469Z,100247.41
2023-04-05T19:51:07.557Z,100247.44
2023-04-05T19:53:41.436Z,100247.74
2023-04-05T19:56:25.842Z,100246.80
2023-04-05T19:59:03.733Z,100243.48
2023-04-05T20:01:35.071Z,100242.40
2023-04-05T20:04:15.846Z,100243.39
2023-04-05T20:06:52.985Z,100240.92
2023-04-05T20:09:23.397Z,100242.73
2023-04-05T20:12:01.716Z,100238.29
2023-04-05T20:14:41.339Z,100234.73
2023-04-05T20:17:10.404Z,100237.61
2023-04-05T20:19:41.089Z,100238.61
2023-04-05T20:22:10.127Z,100235.06
2023-04-05T20:24:39.755Z,100237.33
2023-04-05T20:27:08.134Z,100236.77
2023-04-05T20:29:36.601Z,100237.74
2023-04-05T20:32:06.089Z,100236.83
2023-04-05T20:34:36.617Z,100237.42
2023-04-05T20:37:11.210Z,100240.47
2023-04-05T20:39:39.394Z,100238.30
2023-04-05T20:42:09.979Z,100237.11
2023-04-05T20:44:38.248Z,100232.77
2023-04-05T20:47:06.621Z,100232.62
2023-04-05T20:49:35.209Z,100231.77
2023-04-05T20:52:07.913Z,100226.11
2023-04-05T20:54:37.083Z,100228.96
2023-04-05T20:57:05.565Z,100228.83
2023-04-05T20:59:34.371Z,100229.86
2023-04-05T21:02:02.703Z,100226.65
2023-04-05T21:04:50.779Z,100224.86
2023-04-05T21:07:19.252Z,100223.20
2023-04-05T21:09:47.688Z,100218.25
2023-04-05T21:12:16.110Z,100216.96
2023-04-05T21:14:44.288Z,100213.46
2023-04-05T21:17:12.562Z,100214.16
2023-04-05T21:19:41.373Z,100215.05
2023-04-05T21:22:09.834Z,100216.94
2023-04-05T21:24:38.112Z,100221.02
2023-04-05T21:27:06.608Z,100218.58
2023-04-05T21:29:34.768Z,100220.17
2023-04-05T21:32:03.263Z,100219.12
2023-04-05T21:34:31.423Z,100219.83
2023-04-05T21:36:59.703Z,100219.88
2023-04-05T21:39:27.872Z,100223.55
2023-04-05T21:41:57.157Z,100220.67
2023-04-05T21:44:25.349Z,100218.83
2023-04-05T21:46:53.779Z,100216.09
2023-04-05T21:49:22.259Z,100215.77
2023-04-05T21:51:50.590Z,100214.02
2023-04-05T21:54:18.975Z,100215.05
2023-04-05T21:56:47.246Z,100215.52
2023-04-05T21:59:16.382Z,100215.08
2023-04-05T22:01:44.632Z,100213.19
2023-04-05T22:04:12.788Z,100213.95
2023-04-05T22:06:41.890Z,100212.63
2023-04-05T22:09:10.220Z,100206.38
2023-04-05T22:11:38.957Z,100206.80
2023-04-05T22:14:07.339Z,100204.66
2023-04-05T22:16:36.078Z,100204.86
2023-04-05T22:19:04.841Z,100203.80
2023-04-05T22:21:33.289Z,100201.78
2023-04-05T22:24:01.676Z,100197.29
2023-04-05T22:26:30.249Z,100201.98
2023-04-05T22:28:58.837Z,100199.63
2023-04-05T22:31:27.258Z,100201.16
2023-04-05T22:33:55.795Z,100197.84
2023-04-05T22:36:24.175Z,100196.00
2023-04-05T22:38:54.168Z,100198.05
2023-04-05T22:41:22.986Z,100194.37
2023-04-05T22:43:51.466Z,100193.10
2023-04-05T22:46:19.785Z,100194.94
2023-04-05T22:48:48.534Z,100196.73
2023-04-05T22:51:16.806Z,100196.83
2023-04-05T22:53:46.236Z,100193.55
2023-04-05T22:56:14.986Z,100190.95
2023-04-05T22:58:43.374Z,100188.15
2023-04-05T23:01:11.565Z,100187.10
2023-04-05T23:03:39.727Z,100187.72
2023-04-05T23:06:08.006Z,100186.61
2023-04-05T23:08:36.222Z,100187.70
2023-04-05T23:11:04.885Z,100183.82
2023-04-05T23:13:33.343Z,100187.78
2023-04-05T23:16:01.891Z,100183.91
2023-04-05T23:18:30.712Z,100182.25
2023-04-05T23:20:58.887Z,100181.90
2023-04-05T23:23:28.093Z,100180.67
2023-04-05T23:25:56.569Z,100179.55
2023-04-05T23:28:24.847Z,100180.50
2023-04-05T23:30:53.022Z,100181.96
2023-04-05T23:33:21.924Z,100179.55
2023-04-05T23:35:50.105Z,100178.29
2023-04-05T23:38:18.273Z,100181.09
2023-04-05T23:40:47.047Z,100184.74
2023-04-05T23:43:16.271Z,100178.46
2023-04-05T23:45:44.530Z,100174.32
2023-04-05T23:48:12.807Z,100171.63
2023-04-05T23:50:41.590Z,100177.49
2023-04-05T23:53:09.865Z,100175.77
2023-04-05T23:55:42.037Z,100172.31
2023-04-05T23:58:10.313Z,100163.42
